EETNLIMZ

Guest
Details From EETN - TALLINN
To LIMZ - LEVALDIGI
Flight Number -
Tags decoded
Created
Modified
Stats Distance 1,090 nm / 2,018 km
Max Altitude 0 ft / 0 m
Waypoints 3
Social Downloads 0
Likes 0
Share VATSIM

Download

Looking for another format? Having issues loading an existing format? Contact us
Advertisement - Login to hide

Notes

Requested: EETN XIBER LIMZ

Route

EETN XIBER LIMZ

ID Type Via Altitude Latitude Longitude Leg Dist Tot Dist Heading (true) Name
O EETN APT - 0 ft / 0 m 59.41326˚ 24.83280˚ - 0 nm - TALLINN
XIBER FIX - 0 ft / 0 m 45.35028˚ 8.21972˚ 1035 nm 1035 nm 223° / 209° -
O LIMZ APT - 0 ft / 0 m 44.54760˚ 7.62332˚ 54 nm 1089 nm 208° / 208° LEVALDIGI

Altitude Profile

Advertisement - Login to hide

Weather


0- 5 10 15 20 25 30 35+ Temperature / ° C

Clouds and Precipitation
Forecast for 2018-05-23 18:00 UTC. Updated 2 hours ago

Ground ~20,000 ft ~40,000 ft Winds

EETN

Details ICAO EETN (TLL)
Name TALLINN
Region Estonia
Timezone Europe/Tallinn (UTC+3.0)
Stats Elevation 131 ft / 40 m (AMSL)
Location 59.413257° 24.832803°
Runways 1
Magnetic Variation 8.703° E

METAR

EETN 231920Z 28010KT CAVOK 17/07 Q1023 NOSIG

Decode

TAF

TAF TAF EETN 231130Z 2312/2412 30012KT CAVOK PROB4O TEMPO 2312/2316 SCT030CB BECMG 2323/2401 04014KT

Decode

Departure Runways

ID Width Length Bearing (true) Bearing (mag) Surface Threshold Offset Overrun Length
08 148 ft / 45 m 10,023 ft / 3,055 m 90.24° 81.54° Asphalt 820 ft / 250 m 0 ft / 0 m
26 148 ft / 45 m 10,023 ft / 3,055 m 270.28° 261.58° Asphalt 0 ft / 0 m 184 ft / 56 m

LIMZ

Details ICAO LIMZ (CUF)
Name LEVALDIGI
Region Italy
Timezone Europe/Rome (UTC+2.0)
Stats Elevation 1,267 ft / 386 m (AMSL)
Location 44.547603° 7.623322°
Runways 1
Magnetic Variation 2.163° E

METAR

LIMZ 231850Z 25002KT 9999 FEW020 18/13 Q1017

Decode

TAF

TAF AMD TAF AMD LIMZ 231901Z 2318/2418 CNL

Decode

Destination Runways

ID Width Length Bearing (true) Bearing (mag) Surface Threshold Offset Overrun Length
03 148 ft / 45 m 6,903 ft / 2,104 m 32.49° 30.33° Asphalt 0 ft / 0 m 696 ft / 212 m
21 148 ft / 45 m 6,903 ft / 2,104 m 212.50° 210.34° Asphalt 0 ft / 0 m 581 ft / 177 m

Approach Navaids

Runway Type Ident Frequency Range Bearing (true) Bearing (mag) Slope Elevation
21 Localiser LEV 110.95 MHz 18 nm / 33 km 212.50° 210.33° - 1,267 ft / 386 m (AMSL)
21 Glidescope LEV 110.95 MHz 10 nm / 19 km 212.50° 210.33° 3.00° 1,267 ft / 386 m (AMSL)

Popular Alternatives